Time;durP1;ratioP1;P1;durP2;ratioP2;P2;SDS_P1;SDS_P2;PMS_P1;PMS_P2;Temp;Humidity;BMP_temperature;BMP_pressure;BME280_temperature;BME280_humidity;BME280_pressure;Samples;Min_cycle;Max_cycle;Signal;HPM_P1;HPM_P2
2022/03/20 00:00:36;;;;;;;0.90;0.90;;;3.90;99.90;;;;;;5114273;28;20185;-73
2022/03/20 00:03:12;;;;;;;0.80;0.80;;;3.80;99.90;;;;;;5114819;28;20258;-72
2022/03/20 00:05:39;;;;;;;0.80;0.80;;;3.80;99.90;;;;;;5115262;28;20658;-74
2022/03/20 00:08:09;;;;;;;0.90;0.90;;;3.70;99.90;;;;;;5115077;28;20177;-72
2022/03/20 00:10:42;;;;;;;0.80;0.80;;;3.70;99.90;;;;;;5114195;28;20248;-71
2022/03/20 00:13:09;;;;;;;0.80;0.80;;;3.50;99.90;;;;;;5114533;28;20185;-71
2022/03/20 00:15:41;;;;;;;0.80;0.80;;;3.60;99.90;;;;;;5114433;28;20174;-74
2022/03/20 00:18:07;;;;;;;0.80;0.80;;;3.60;1.00;;;;;;5114328;28;20171;-72
2022/03/20 00:20:35;;;;;;;0.90;0.90;;;3.60;99.90;;;;;;5114051;28;20193;-72
2022/03/20 00:23:04;;;;;;;0.70;0.70;;;3.70;99.90;;;;;;5114341;28;20212;-74
2022/03/20 00:25:31;;;;;;;0.80;0.80;;;3.70;99.90;;;;;;5114144;28;20549;-74
2022/03/20 00:27:57;;;;;;;0.80;0.80;;;3.90;1.00;;;;;;5114243;28;20258;-71
2022/03/20 00:30:22;;;;;;;0.80;0.80;;;4.10;1.00;;;;;;5113490;28;20243;-72
2022/03/20 00:32:48;;;;;;;0.80;0.80;;;4.10;1.00;;;;;;5113936;28;20197;-72
2022/03/20 00:35:13;;;;;;;0.90;0.90;;;4.10;1.00;;;;;;5107479;22;20392;-77
2022/03/20 00:37:39;;;;;;;0.90;0.90;;;4.00;1.00;;;;;;5053442;28;20186;-76
2022/03/20 00:40:05;;;;;;;0.77;0.77;;;3.80;99.90;;;;;;5060244;28;20199;-76
2022/03/20 00:42:31;;;;;;;0.80;0.80;;;3.70;99.90;;;;;;5073889;28;20186;-76
2022/03/20 00:44:56;;;;;;;0.80;0.80;;;3.70;99.90;;;;;;5073448;28;20248;-77
2022/03/20 00:47:22;;;;;;;0.80;0.80;;;3.40;99.90;;;;;;5073687;28;20175;-75
2022/03/20 00:49:47;;;;;;;0.80;0.80;;;3.40;99.90;;;;;;5072459;28;20273;-76
2022/03/20 00:52:13;;;;;;;0.90;0.90;;;3.50;99.90;;;;;;5073204;28;20182;-73
2022/03/20 00:54:38;;;;;;;0.87;0.87;;;3.50;99.90;;;;;;5073046;28;20202;-73
2022/03/20 00:57:04;;;;;;;0.83;0.83;;;3.50;99.90;;;;;;5072962;28;20257;-73
2022/03/20 00:59:30;;;;;;;0.90;0.90;;;3.50;1.00;;;;;;5072086;28;20682;-75
2022/03/20 01:01:55;;;;;;;0.90;0.90;;;3.60;1.00;;;;;;5072562;28;20177;-75
2022/03/20 01:04:21;;;;;;;0.80;0.80;;;3.60;99.90;;;;;;5072472;28;20561;-76
2022/03/20 01:06:46;;;;;;;0.80;0.80;;;3.70;99.90;;;;;;5072555;28;20214;-75
2022/03/20 01:09:12;;;;;;;0.80;0.80;;;3.60;99.90;;;;;;5071618;28;20178;-75
2022/03/20 01:11:38;;;;;;;0.80;0.80;;;3.60;99.90;;;;;;5072594;28;20239;-74
2022/03/20 01:14:04;;;;;;;0.80;0.80;;;3.50;1.00;;;;;;5072470;28;20182;-76
2022/03/20 01:16:30;;;;;;;0.90;0.90;;;3.50;99.90;;;;;;5072771;28;20182;-75
2022/03/20 01:18:56;;;;;;;0.80;0.80;;;3.50;1.00;;;;;;5072264;28;20645;-75
2022/03/20 01:21:21;;;;;;;0.80;0.80;;;3.50;1.00;;;;;;5072175;28;20225;-74
2022/03/20 01:23:47;;;;;;;0.80;0.80;;;3.50;99.90;;;;;;5072221;28;20241;-74
2022/03/20 01:26:12;;;;;;;0.70;0.70;;;3.50;99.90;;;;;;5072279;28;20253;-75
2022/03/20 01:28:38;;;;;;;0.80;0.80;;;3.50;99.90;;;;;;5072035;28;20182;-73
2022/03/20 01:31:04;;;;;;;0.80;0.80;;;3.60;48.20;;;;;;5071813;28;20208;-73
2022/03/20 01:33:30;;;;;;;0.80;0.80;;;3.60;99.90;;;;;;5072110;28;20178;-73
2022/03/20 01:35:55;;;;;;;0.90;0.90;;;3.50;1.00;;;;;;5071880;28;20660;-73
2022/03/20 01:38:21;;;;;;;0.80;0.80;;;3.20;99.90;;;;;;5071981;28;20577;-73
2022/03/20 01:40:47;;;;;;;0.80;0.80;;;3.40;1.00;;;;;;5071368;28;20662;-73
2022/03/20 01:43:14;;;;;;;0.80;0.80;;;3.10;1.00;;;;;;5071413;28;20202;-75
2022/03/20 01:45:39;;;;;;;0.70;0.70;;;3.10;99.90;;;;;;5071948;28;20186;-73
2022/03/20 01:48:05;;;;;;;0.80;0.80;;;3.00;99.90;;;;;;5071635;28;20641;-73
2022/03/20 01:50:33;;;;;;;0.90;0.90;;;3.10;99.90;;;;;;5071090;28;20194;-75
2022/03/20 01:52:59;;;;;;;0.80;0.80;;;3.20;99.90;;;;;;5071692;28;20198;-75
2022/03/20 01:55:26;;;;;;;0.77;0.77;;;3.10;1.00;;;;;;5071674;28;20249;-75
2022/03/20 01:57:54;;;;;;;0.80;0.80;;;3.20;1.00;;;;;;5071647;28;20321;-75
2022/03/20 02:00:21;;;;;;;0.80;0.80;;;3.10;1.00;;;;;;5071145;28;20203;-75
2022/03/20 02:02:47;;;;;;;0.83;0.83;;;3.20;1.00;;;;;;5071432;28;20174;-76
2022/03/20 02:05:13;;;;;;;0.80;0.80;;;3.40;99.90;;;;;;5071594;28;20174;-75
2022/03/20 02:07:40;;;;;;;0.80;0.80;;;3.40;99.90;;;;;;5071332;28;20181;-75
2022/03/20 02:10:07;;;;;;;0.80;0.80;;;3.40;99.90;;;;;;5070866;28;20190;-75
2022/03/20 02:12:35;;;;;;;0.90;0.90;;;3.60;99.90;;;;;;5071432;28;20175;-75
2022/03/20 02:15:01;;;;;;;0.90;0.90;;;3.10;1.00;;;;;;5071626;28;20249;-76
2022/03/20 02:17:30;;;;;;;0.80;0.80;;;3.10;99.90;;;;;;5071492;28;20194;-75
2022/03/20 02:20:03;;;;;;;0.80;0.80;;;3.10;1.00;;;;;;5069887;28;20190;-75
2022/03/20 02:22:29;;;;;;;0.90;0.90;;;3.10;1.00;;;;;;5071138;28;20628;-75
2022/03/20 02:24:54;;;;;;;0.80;0.80;;;3.10;99.90;;;;;;5071056;28;20264;-75
2022/03/20 02:27:23;;;;;;;0.80;0.80;;;3.10;12.80;;;;;;5071409;28;20166;-75
2022/03/20 02:29:57;;;;;;;0.80;0.80;;;3.20;99.90;;;;;;5070563;28;20349;-75
2022/03/20 02:32:28;;;;;;;0.80;0.80;;;3.10;1.00;;;;;;5070940;28;20829;-76
2022/03/20 02:35:02;;;;;;;0.90;0.90;;;3.10;99.90;;;;;;5071037;28;20201;-76
2022/03/20 02:37:28;;;;;;;0.80;0.80;;;3.10;1.00;;;;;;5071147;28;20174;-74
2022/03/20 02:39:56;;;;;;;0.80;0.80;;;3.10;99.90;;;;;;5070623;28;20313;-77
2022/03/20 02:42:23;;;;;;;0.90;0.90;;;3.10;99.90;;;;;;5071216;28;20186;-75
2022/03/20 02:45:10;;;;;;;0.87;0.87;;;3.20;1.00;;;;;;5071001;28;20218;-75
2022/03/20 02:47:47;;;;;;;0.90;0.90;;;3.10;8.10;;;;;;5070948;28;20660;-75
2022/03/20 02:50:12;;;;;;;0.80;0.80;;;2.90;99.90;;;;;;5070702;28;20198;-75
2022/03/20 02:52:59;;;;;;;0.80;0.80;;;2.90;99.90;;;;;;5071045;28;20178;-75
2022/03/20 02:55:28;;;;;;;0.80;0.80;;;2.80;1.00;;;;;;5071010;28;20181;-75
2022/03/20 02:57:57;;;;;;;0.80;0.80;;;2.80;1.00;;;;;;5070737;28;20185;-75
2022/03/20 03:00:26;;;;;;;0.80;0.80;;;2.70;1.00;;;;;;5070085;28;20589;-76
2022/03/20 03:02:54;;;;;;;0.80;0.80;;;2.70;99.90;;;;;;5070848;28;20174;-74
2022/03/20 03:05:22;;;;;;;0.70;0.70;;;2.70;1.00;;;;;;5071065;28;20182;-74
2022/03/20 03:13:21;;;;;;;0.80;0.80;;;2.50;99.90;;;;;;5071114;28;20182;-75
2022/03/20 03:15:46;;;;;;;0.80;0.80;;;2.60;99.90;;;;;;5070938;28;20468;-74
2022/03/20 03:18:12;;;;;;;0.90;0.90;;;2.70;99.90;;;;;;5070754;28;20186;-75
2022/03/20 03:20:38;;;;;;;0.80;0.80;;;2.70;99.90;;;;;;5070121;28;20281;-76
2022/03/20 03:23:05;;;;;;;0.80;0.80;;;2.70;99.90;;;;;;5070504;28;20669;-74
2022/03/20 03:25:32;;;;;;;0.70;0.70;;;2.70;99.90;;;;;;5070802;28;20179;-74
2022/03/20 03:27:58;;;;;;;0.90;0.90;;;2.80;1.00;;;;;;5070789;28;20206;-74
2022/03/20 03:30:25;;;;;;;0.80;0.80;;;2.90;1.00;;;;;;5070149;28;20667;-74
2022/03/20 03:32:51;;;;;;;0.90;0.90;;;2.80;1.00;;;;;;5073602;28;20644;-75
2022/03/20 03:38:03;;;;;;;0.90;0.90;;;2.80;99.90;;;;;;5074333;28;20189;-74
2022/03/20 03:40:30;;;;;;;0.90;0.90;;;2.80;1.00;;;;;;5074110;28;20202;-74
2022/03/20 03:42:57;;;;;;;0.80;0.80;;;2.80;99.90;;;;;;5074204;28;20597;-75
2022/03/20 03:45:24;;;;;;;0.90;0.90;;;2.80;99.90;;;;;;5074992;28;20312;-75
2022/03/20 03:47:50;;;;;;;0.90;0.90;;;2.80;1.00;;;;;;5074932;28;20188;-74
2022/03/20 03:50:16;;;;;;;0.80;0.80;;;2.70;1.00;;;;;;5074700;28;20202;-74
2022/03/20 03:52:42;;;;;;;0.87;0.87;;;2.80;1.00;;;;;;5074284;28;20515;-74
2022/03/20 03:55:08;;;;;;;0.90;0.90;;;2.70;1.00;;;;;;5074282;28;20210;-74
2022/03/20 03:57:33;;;;;;;0.90;0.90;;;2.70;1.00;;;;;;5074246;28;20170;-75
2022/03/20 03:59:59;;;;;;;0.97;0.97;;;2.70;99.90;;;;;;5073309;28;20190;-74
2022/03/20 04:02:25;;;;;;;0.90;0.90;;;2.60;1.00;;;;;;5073954;28;20261;-75
2022/03/20 04:04:50;;;;;;;0.90;0.90;;;2.80;1.00;;;;;;5073753;28;20297;-74
2022/03/20 04:07:17;;;;;;;0.90;0.90;;;2.90;99.90;;;;;;5074095;28;20171;-75
2022/03/20 04:09:43;;;;;;;0.90;0.90;;;2.90;1.00;;;;;;5073249;28;20221;-73
2022/03/20 04:12:10;;;;;;;0.80;0.80;;;2.70;1.00;;;;;;5073537;28;20166;-74
2022/03/20 04:14:35;;;;;;;0.80;0.80;;;2.70;1.00;;;;;;5073595;28;20201;-73
2022/03/20 04:17:03;;;;;;;0.77;0.77;;;2.70;1.00;;;;;;5073601;28;20252;-74
2022/03/20 04:19:29;;;;;;;0.90;0.90;;;2.70;1.00;;;;;;5072880;28;20651;-74
2022/03/20 04:21:54;;;;;;;0.90;0.90;;;2.80;1.00;;;;;;5073778;28;20178;-75
2022/03/20 04:24:20;;;;;;;0.97;0.97;;;2.80;1.00;;;;;;5073430;28;20214;-74
2022/03/20 04:26:46;;;;;;;0.90;0.90;;;2.80;1.00;;;;;;5073517;28;20593;-74
2022/03/20 04:29:11;;;;;;;0.80;0.80;;;2.60;99.90;;;;;;5072948;28;20214;-74
2022/03/20 04:31:37;;;;;;;0.80;0.80;;;2.80;43.30;;;;;;5073572;28;20201;-75
2022/03/20 04:34:04;;;;;;;0.97;0.97;;;2.70;99.90;;;;;;5072952;28;20197;-74
2022/03/20 04:36:30;;;;;;;0.90;0.90;;;2.70;99.90;;;;;;5073715;28;20175;-74
2022/03/20 04:38:58;;;;;;;0.90;0.90;;;2.70;21.70;;;;;;5073000;28;20178;-75
2022/03/20 04:41:25;;;;;;;0.90;0.90;;;2.80;1.00;;;;;;5074248;28;20195;-75
2022/03/20 04:43:50;;;;;;;0.90;0.90;;;2.60;1.00;;;;;;5074528;28;20220;-75
2022/03/20 04:46:17;;;;;;;0.90;0.90;;;2.50;99.90;;;;;;5075693;28;20261;-74
2022/03/20 04:59:40;;;;;;;0.80;0.80;;;2.90;99.90;;;;;;5075624;28;20206;-74
2022/03/20 05:02:06;;;;;;;0.70;0.70;;;2.70;99.90;;;;;;5076414;28;20182;-73
2022/03/20 05:04:31;;;;;;;0.73;0.73;;;2.70;99.90;;;;;;5077124;28;20309;-75
2022/03/20 05:06:57;;;;;;;0.80;0.80;;;2.80;99.90;;;;;;5073381;28;20569;-75
2022/03/20 05:14:51;;;;;;;0.80;0.80;;;2.90;99.90;;;;;;5072999;28;20292;-74
2022/03/20 05:17:17;;;;;;;0.83;0.83;;;2.80;99.90;;;;;;5072967;28;20205;-74
2022/03/20 05:19:42;;;;;;;1.00;1.00;;;2.80;99.90;;;;;;5072215;28;20202;-75
2022/03/20 05:22:10;;;;;;;0.90;0.90;;;2.80;1.00;;;;;;5072655;28;20595;-75
2022/03/20 05:24:36;;;;;;;0.80;0.80;;;3.00;89.80;;;;;;5072882;28;20225;-75
2022/03/20 05:27:02;;;;;;;0.80;0.80;;;3.00;1.00;;;;;;5072655;28;20170;-75
2022/03/20 05:29:28;;;;;;;0.80;0.80;;;2.90;16.90;;;;;;5072257;28;20197;-76
2022/03/20 05:31:55;;;;;;;0.80;0.80;;;2.90;1.00;;;;;;5072569;28;20174;-76
2022/03/20 05:34:22;;;;;;;0.80;0.80;;;3.00;1.00;;;;;;5072972;28;20551;-76
2022/03/20 05:36:48;;;;;;;0.70;0.70;;;3.00;99.90;;;;;;5072369;28;20258;-75
2022/03/20 05:39:14;;;;;;;0.90;0.90;;;3.00;99.90;;;;;;5072140;28;20205;-75
2022/03/20 05:41:49;;;;;;;0.80;0.80;;;2.90;39.80;;;;;;5072439;28;20166;-75
2022/03/20 05:44:16;;;;;;;0.80;0.80;;;2.80;1.00;;;;;;5072564;28;20218;-75
2022/03/20 05:46:47;;;;;;;0.77;0.77;;;2.90;99.90;;;;;;5072388;28;20183;-74
2022/03/20 05:49:13;;;;;;;0.90;0.90;;;3.00;99.90;;;;;;5071577;28;20218;-75
2022/03/20 05:51:39;;;;;;;0.90;0.90;;;3.00;99.90;;;;;;5072411;28;20182;-75
2022/03/20 05:54:07;;;;;;;0.90;0.90;;;3.10;99.90;;;;;;5072112;28;20174;-74
2022/03/20 05:59:17;;;;;;;0.80;0.80;;;2.90;99.90;;;;;;5071746;28;20181;-74
2022/03/20 06:01:43;;;;;;;0.80;0.80;;;3.10;99.90;;;;;;5071927;28;20170;-74
2022/03/20 06:04:09;;;;;;;0.83;0.83;;;3.10;96.10;;;;;;5071678;28;20233;-73
2022/03/20 06:06:35;;;;;;;0.80;0.80;;;3.00;99.90;;;;;;5072100;28;20178;-75
2022/03/20 06:09:02;;;;;;;0.97;0.97;;;3.10;99.90;;;;;;5071412;28;20224;-75
2022/03/20 06:11:27;;;;;;;0.90;0.90;;;3.20;29.20;;;;;;5071754;28;20186;-74
2022/03/20 06:13:53;;;;;;;0.80;0.80;;;3.30;1.00;;;;;;5071841;28;20213;-74
2022/03/20 06:16:21;;;;;;;0.80;0.80;;;3.40;99.90;;;;;;5072005;28;20170;-75
2022/03/20 06:18:47;;;;;;;0.70;0.70;;;3.40;99.90;;;;;;5071770;28;20174;-75
2022/03/20 06:21:13;;;;;;;0.90;0.90;;;3.50;1.00;;;;;;5071332;28;20198;-74
2022/03/20 06:23:39;;;;;;;0.80;0.80;;;3.70;1.00;;;;;;5071579;28;20743;-74
2022/03/20 06:26:06;;;;;;;0.83;0.83;;;3.60;99.90;;;;;;5071474;28;20541;-75
2022/03/20 06:28:32;;;;;;;0.83;0.83;;;3.90;1.00;;;;;;5071497;28;20182;-75
2022/03/20 06:30:58;;;;;;;0.90;0.90;;;3.90;99.90;;;;;;5070747;28;20730;-74
2022/03/20 06:33:27;;;;;;;0.80;0.80;;;3.70;99.90;;;;;;5071534;28;20213;-74
2022/03/20 06:35:54;;;;;;;0.77;0.77;;;3.50;1.00;;;;;;5125982;23;20293;-74
2022/03/20 06:38:20;;;;;;;0.70;0.70;;;3.70;99.90;;;;;;5091765;28;20204;-75
2022/03/20 06:40:45;;;;;;;0.90;0.90;;;3.90;99.90;;;;;;5104151;28;20667;-74
2022/03/20 06:43:11;;;;;;;0.80;0.80;;;4.00;1.00;;;;;;5111840;28;20211;-74
2022/03/20 06:45:37;;;;;;;0.80;0.80;;;4.10;1.00;;;;;;5111787;28;21261;-74
2022/03/20 06:48:03;;;;;;;0.90;0.90;;;4.00;99.90;;;;;;5112176;28;20169;-75
2022/03/20 06:50:29;;;;;;;0.80;0.80;;;4.00;1.00;;;;;;5111136;28;20228;-71
2022/03/20 06:52:54;;;;;;;0.90;0.90;;;4.30;1.00;;;;;;5111672;28;20205;-71
2022/03/20 06:55:20;;;;;;;0.70;0.70;;;4.60;1.00;;;;;;5111761;28;20177;-71
2022/03/20 06:57:46;;;;;;;0.80;0.80;;;5.00;99.90;;;;;;5111801;28;20627;-73
2022/03/20 07:00:13;;;;;;;0.70;0.70;;;5.20;99.90;;;;;;5111076;28;20319;-72
2022/03/20 07:02:39;;;;;;;0.70;0.70;;;5.70;45.10;;;;;;5113165;28;20172;-72
2022/03/20 07:05:05;;;;;;;0.70;0.70;;;5.70;35.70;;;;;;5112181;28;20583;-73
2022/03/20 07:07:34;;;;;;;0.70;0.70;;;5.90;1.00;;;;;;5114563;28;20539;-71
2022/03/20 07:09:59;;;;;;;0.70;0.70;;;6.30;1.00;;;;;;5115368;28;20197;-71
2022/03/20 07:12:25;;;;;;;0.60;0.60;;;6.70;1.00;;;;;;5115853;28;20531;-71
2022/03/20 07:14:53;;;;;;;0.70;0.70;;;7.60;1.00;;;;;;5115894;28;20634;-72
2022/03/20 07:17:19;;;;;;;0.60;0.60;;;7.90;1.00;;;;;;5115794;28;20177;-73
2022/03/20 07:19:45;;;;;;;0.60;0.60;;;8.70;1.00;;;;;;5115028;28;20204;-73
2022/03/20 07:22:15;;;;;;;0.50;0.50;;;8.90;1.00;;;;;;5115992;28;20184;-73
2022/03/20 07:24:42;;;;;;;0.60;0.60;;;9.50;1.00;;;;;;5115454;28;20216;-72
2022/03/20 07:29:53;;;;;;;0.60;0.60;;;9.60;1.00;;;;;;5115314;28;20191;-74
2022/03/20 07:32:19;;;;;;;0.50;0.50;;;9.90;1.00;;;;;;5115552;28;20169;-73
2022/03/20 07:34:45;;;;;;;0.50;0.50;;;10.40;1.00;;;;;;5115367;28;20272;-73
2022/03/20 07:37:16;;;;;;;0.60;0.60;;;10.60;1.00;;;;;;5115269;28;20177;-74
2022/03/20 07:39:42;;;;;;;0.40;0.40;;;11.00;1.00;;;;;;5114704;28;20197;-73
2022/03/20 07:42:08;;;;;;;0.40;0.40;;;10.90;1.00;;;;;;5115499;28;20200;-75
2022/03/20 07:44:36;;;;;;;0.40;0.40;;;11.10;1.00;;;;;;5115223;28;20238;-74
2022/03/20 07:47:08;;;;;;;0.40;0.40;;;10.80;1.00;;;;;;5115603;28;20177;-75
2022/03/20 07:49:36;;;;;;;0.40;0.40;;;10.90;1.00;;;;;;5114733;28;20200;-74
2022/03/20 07:52:02;;;;;;;0.30;0.30;;;10.90;1.00;;;;;;5114971;28;20169;-75
2022/03/20 07:54:28;;;;;;;0.37;0.37;;;11.70;1.00;;;;;;5115349;28;20225;-74
2022/03/20 07:56:54;;;;;;;0.40;0.40;;;11.30;1.00;;;;;;5115302;28;20238;-74
2022/03/20 07:59:20;;;;;;;0.40;0.40;;;11.40;1.00;;;;;;5114622;28;20646;-73
2022/03/20 08:01:45;;;;;;;0.40;0.40;;;11.80;1.00;;;;;;5115032;28;20176;-73
2022/03/20 08:04:11;;;;;;;0.40;0.40;;;12.60;1.00;;;;;;5115115;28;20346;-74
2022/03/20 08:06:36;;;;;;;0.30;0.30;;;12.80;1.00;;;;;;5115989;28;20200;-74
2022/03/20 08:09:02;;;;;;;0.30;0.30;;;12.90;1.00;;;;;;5114679;28;20256;-73
2022/03/20 08:11:29;;;;;;;0.40;0.40;;;13.30;1.00;;;;;;5115050;28;20185;-74
2022/03/20 08:13:56;;;;;;;0.30;0.30;;;13.00;1.00;;;;;;5115093;28;20234;-73
2022/03/20 08:16:25;;;;;;;0.40;0.40;;;13.10;1.00;;;;;;5114990;28;20200;-73
2022/03/20 08:18:56;;;;;;;0.30;0.30;;;13.00;1.00;;;;;;5113307;28;20179;-74
2022/03/20 08:21:21;;;;;;;0.30;0.30;;;13.00;1.00;;;;;;5114708;28;20682;-71
2022/03/20 08:23:47;;;;;;;0.30;0.30;;;13.70;1.00;;;;;;5115005;28;20219;-74
2022/03/20 08:26:13;;;;;;;0.30;0.30;;;14.20;1.00;;;;;;5115033;28;20173;-74
2022/03/20 08:28:41;;;;;;;0.30;0.30;;;13.80;1.00;;;;;;5114396;28;20177;-75
2022/03/20 08:31:07;;;;;;;0.40;0.40;;;14.30;1.00;;;;;;5114625;28;20204;-75
2022/03/20 08:33:33;;;;;;;0.30;0.30;;;14.40;1.00;;;;;;5114531;28;20268;-74
2022/03/20 08:36:00;;;;;;;0.30;0.30;;;14.20;1.00;;;;;;5114177;28;20193;-73
2022/03/20 08:38:25;;;;;;;0.40;0.40;;;14.00;1.00;;;;;;5114752;28;20199;-73
2022/03/20 08:40:51;;;;;;;0.30;0.30;;;13.90;1.00;;;;;;5114217;28;20674;-74
2022/03/20 08:43:17;;;;;;;0.30;0.30;;;14.80;1.00;;;;;;5113934;28;20209;-74
2022/03/20 08:45:44;;;;;;;0.40;0.40;;;15.40;1.00;;;;;;5114319;28;20173;-74
2022/03/20 08:48:10;;;;;;;0.30;0.30;;;15.50;1.00;;;;;;5115131;28;20200;-75
2022/03/20 08:50:36;;;;;;;0.30;0.30;;;14.90;1.00;;;;;;5114076;28;20200;-73
2022/03/20 08:53:02;;;;;;;0.30;0.30;;;15.30;1.00;;;;;;5114131;28;20181;-73
2022/03/20 08:55:28;;;;;;;0.40;0.40;;;16.10;1.00;;;;;;5114183;28;20184;-73
2022/03/20 08:57:54;;;;;;;0.30;0.30;;;15.90;1.00;;;;;;5113947;28;20177;-74
2022/03/20 09:00:22;;;;;;;0.30;0.30;;;15.40;1.00;;;;;;5113509;28;20367;-73
2022/03/20 09:02:49;;;;;;;0.27;0.27;;;14.50;1.00;;;;;;5113733;28;20177;-73
2022/03/20 09:05:16;;;;;;;0.30;0.30;;;15.10;1.00;;;;;;5114253;28;20248;-73
2022/03/20 09:07:43;;;;;;;0.30;0.30;;;16.00;1.00;;;;;;5114988;28;20177;-75
2022/03/20 09:10:10;;;;;;;0.37;0.37;;;15.50;1.00;;;;;;5115234;28;20197;-74
2022/03/20 09:12:37;;;;;;;0.30;0.30;;;16.10;1.00;;;;;;5114791;28;20180;-74
2022/03/20 09:15:04;;;;;;;0.30;0.30;;;15.40;1.00;;;;;;5113983;28;20196;-73
2022/03/20 09:20:15;;;;;;;0.40;0.40;;;17.30;1.00;;;;;;5113280;28;20220;-74
2022/03/20 09:22:40;;;;;;;0.30;0.30;;;17.70;1.00;;;;;;5113916;28;20193;-73
2022/03/20 09:25:07;;;;;;;0.30;0.30;;;17.50;1.00;;;;;;5113557;28;20212;-73
2022/03/20 09:27:34;;;;;;;0.40;0.40;;;17.40;1.00;;;;;;5113887;28;20197;-73
2022/03/20 09:30:01;;;;;;;0.30;0.30;;;17.30;1.00;;;;;;5112629;28;20284;-73
2022/03/20 09:32:26;;;;;;;0.30;0.30;;;17.20;1.00;;;;;;5114229;28;20227;-74
2022/03/20 09:34:52;;;;;;;0.30;0.30;;;17.10;1.00;;;;;;5114396;28;20314;-74
2022/03/20 09:37:17;;;;;;;0.30;0.30;;;16.40;1.00;;;;;;5114144;28;20173;-74
2022/03/20 09:39:43;;;;;;;0.20;0.20;;;16.00;1.00;;;;;;5112855;28;20658;-74
2022/03/20 09:42:08;;;;;;;0.30;0.30;;;16.60;1.00;;;;;;5113257;28;20226;-74
2022/03/20 09:44:38;;;;;;;0.23;0.23;;;16.40;1.00;;;;;;5113099;28;20208;-71
2022/03/20 09:47:08;;;;;;;0.40;0.40;;;16.60;1.00;;;;;;5113124;28;20170;-72
2022/03/20 09:49:35;;;;;;;0.40;0.40;;;16.50;1.00;;;;;;5112826;28;20201;-72
2022/03/20 09:52:00;;;;;;;0.30;0.30;;;17.40;1.00;;;;;;5113464;28;20181;-72
2022/03/20 09:54:26;;;;;;;0.40;0.40;;;17.40;1.00;;;;;;5113121;28;20611;-73
2022/03/20 09:56:52;;;;;;;0.40;0.40;;;17.00;1.00;;;;;;5113244;28;20686;-74
2022/03/20 09:59:18;;;;;;;0.40;0.40;;;17.40;1.00;;;;;;5113108;28;20212;-71
2022/03/20 10:01:43;;;;;;;0.30;0.30;;;17.70;1.00;;;;;;5112744;28;20200;-74
2022/03/20 10:04:11;;;;;;;0.30;0.30;;;16.80;1.00;;;;;;5114176;28;20216;-73
2022/03/20 10:06:38;;;;;;;0.30;0.30;;;17.10;1.00;;;;;;5113403;28;20175;-73
2022/03/20 10:09:09;;;;;;;0.40;0.40;;;18.00;1.00;;;;;;5112307;28;20173;-73
2022/03/20 10:11:38;;;;;;;0.30;0.30;;;18.90;1.00;;;;;;5115995;28;20443;-73
2022/03/20 10:14:15;;;;;;;0.40;0.40;;;19.00;1.00;;;;;;5116374;28;20714;-71
2022/03/20 10:16:49;;;;;;;0.30;0.30;;;18.10;1.00;;;;;;5094628;28;20192;-73
2022/03/20 10:19:23;;;;;;;0.30;0.30;;;17.90;1.00;;;;;;5112887;28;20205;-73
2022/03/20 10:22:11;;;;;;;0.30;0.30;;;19.40;1.00;;;;;;5113069;28;20180;-73
2022/03/20 10:24:40;;;;;;;0.20;0.20;;;19.90;1.00;;;;;;5112503;28;20208;-73
2022/03/20 10:27:08;;;;;;;0.40;0.40;;;18.40;1.00;;;;;;5112672;28;20214;-72
2022/03/20 10:29:45;;;;;;;0.33;0.33;;;18.70;1.00;;;;;;5112615;28;20602;-72
2022/03/20 10:32:10;;;;;;;0.37;0.37;;;18.10;1.00;;;;;;5113809;28;20184;-72
2022/03/20 10:34:54;;;;;;;0.33;0.33;;;18.70;1.00;;;;;;5112028;28;20646;-71
2022/03/20 10:37:41;;;;;;;0.50;0.50;;;19.00;1.00;;;;;;5112506;28;20195;-73
2022/03/20 10:40:14;;;;;;;0.20;0.20;;;19.20;1.00;;;;;;5111397;28;20193;-73
2022/03/20 10:42:39;;;;;;;0.30;0.30;;;18.90;1.00;;;;;;5111670;28;20245;-73
2022/03/20 10:45:09;;;;;;;0.37;0.37;;;19.50;1.00;;;;;;5111985;28;20682;-71
2022/03/20 10:47:34;;;;;;;0.30;0.30;;;19.80;1.00;;;;;;5112615;28;20173;-73
2022/03/20 10:50:06;;;;;;;0.33;0.33;;;19.70;1.00;;;;;;5111771;28;20244;-72
2022/03/20 10:52:35;;;;;;;0.30;0.30;;;20.70;1.00;;;;;;5112203;28;20535;-72
2022/03/20 10:55:07;;;;;;;0.37;0.37;;;21.10;1.00;;;;;;5112224;28;20169;-74
2022/03/20 10:57:33;;;;;;;0.40;0.40;;;21.80;1.00;;;;;;5111977;28;20257;-73
2022/03/20 11:00:06;;;;;;;0.40;0.40;;;22.70;1.00;;;;;;5111716;28;20199;-74
2022/03/20 11:02:36;;;;;;;0.40;0.40;;;21.70;1.00;;;;;;5111977;28;20256;-74
2022/03/20 11:05:01;;;;;;;0.40;0.40;;;21.60;1.00;;;;;;5112032;28;20208;-75
2022/03/20 11:07:27;;;;;;;0.40;0.40;;;20.70;1.00;;;;;;5112233;28;20252;-71
2022/03/20 11:09:54;;;;;;;0.50;0.50;;;20.80;1.00;;;;;;5112135;28;20568;-75
2022/03/20 11:12:34;;;;;;;0.30;0.30;;;21.50;1.00;;;;;;5112453;28;20211;-73
2022/03/20 11:15:03;;;;;;;0.30;0.30;;;22.30;1.00;;;;;;5094133;28;20165;-73
2022/03/20 11:17:41;;;;;;;0.40;0.40;;;22.70;1.00;;;;;;5112023;28;20185;-74
2022/03/20 11:20:07;;;;;;;0.50;0.50;;;22.50;1.00;;;;;;5111616;28;20197;-74
2022/03/20 11:22:37;;;;;;;0.40;0.40;;;23.40;1.00;;;;;;5112152;28;20252;-73
2022/03/20 11:25:06;;;;;;;0.47;0.47;;;23.50;1.00;;;;;;5112277;28;20212;-74
2022/03/20 11:27:34;;;;;;;0.30;0.30;;;21.90;1.00;;;;;;5111826;28;20693;-73
2022/03/20 11:30:04;;;;;;;0.40;0.40;;;22.10;1.00;;;;;;5111404;28;20221;-74
2022/03/20 11:32:29;;;;;;;0.47;0.47;;;22.90;1.00;;;;;;5111915;28;20260;-73
2022/03/20 11:34:56;;;;;;;0.40;0.40;;;23.30;1.00;;;;;;5111150;28;20681;-73
2022/03/20 11:37:22;;;;;;;0.40;0.40;;;24.20;1.00;;;;;;5112056;28;20181;-74
2022/03/20 11:40:11;;;;;;;0.60;0.60;;;24.10;1.00;;;;;;5111069;28;20276;-73
2022/03/20 11:42:40;;;;;;;0.50;0.50;;;24.40;1.00;;;;;;5111539;28;20205;-73
2022/03/20 11:45:06;;;;;;;0.50;0.50;;;24.20;1.00;;;;;;5111573;28;20327;-74
2022/03/20 11:47:35;;;;;;;0.50;0.50;;;24.10;1.00;;;;;;5111605;28;20173;-73
2022/03/20 11:50:23;;;;;;;0.30;0.30;;;23.70;1.00;;;;;;5111385;28;20238;-73
2022/03/20 11:53:00;;;;;;;0.50;0.50;;;22.30;1.00;;;;;;5094339;28;20175;-73
2022/03/20 11:55:29;;;;;;;0.40;0.40;;;21.20;1.00;;;;;;5115479;28;20199;-73
2022/03/20 11:57:56;;;;;;;0.50;0.50;;;21.50;1.00;;;;;;5115114;28;20176;-75
2022/03/20 12:00:27;;;;;;;0.30;0.30;;;20.70;1.00;;;;;;5114804;28;20200;-71
2022/03/20 12:03:20;;;;;;;0.40;0.40;;;20.70;1.00;;;;;;5115888;28;20718;-73
2022/03/20 12:06:13;;;;;;;0.40;0.40;;;21.20;1.00;;;;;;5115132;28;20189;-75
2022/03/20 12:09:01;;;;;;;0.40;0.40;;;21.90;1.00;;;;;;5115317;28;20183;-74
2022/03/20 12:12:04;;;;;;;0.30;0.30;;;22.20;1.00;;;;;;5115353;28;20193;-73
2022/03/20 12:14:38;;;;;;;0.30;0.30;;;21.80;1.00;;;;;;5115273;28;20177;-73
2022/03/20 12:17:04;;;;;;;0.33;0.33;;;23.00;1.00;;;;;;5115498;28;20253;-73
2022/03/20 12:19:43;;;;;;;0.40;0.40;;;22.80;1.00;;;;;;5115152;28;20669;-74
2022/03/20 12:22:14;;;;;;;0.30;0.30;;;23.10;1.00;;;;;;5115215;28;20185;-72
2022/03/20 12:25:02;;;;;;;0.40;0.40;;;23.30;1.00;;;;;;5115136;28;20216;-74
2022/03/20 12:27:27;;;;;;;0.30;0.30;;;23.50;1.00;;;;;;5116579;28;20181;-72
2022/03/20 12:30:07;;;;;;;0.30;0.30;;;22.80;1.00;;;;;;5118372;28;20241;-72
2022/03/20 12:32:48;;;;;;;0.30;0.30;;;22.90;1.00;;;;;;5117862;28;20184;-72
2022/03/20 12:35:14;;;;;;;0.30;0.30;;;21.50;1.00;;;;;;5117026;28;20188;-71
2022/03/20 12:37:40;;;;;;;0.40;0.40;;;22.00;1.00;;;;;;5116129;28;20382;-71
2022/03/20 12:40:11;;;;;;;0.30;0.30;;;21.90;1.00;;;;;;5114269;28;20733;-73
2022/03/20 12:42:43;;;;;;;0.30;0.30;;;22.70;1.00;;;;;;5115560;28;20459;-71
2022/03/20 12:45:15;;;;;;;0.30;0.30;;;23.30;1.00;;;;;;5114693;28;20212;-73
2022/03/20 12:47:53;;;;;;;0.30;0.30;;;22.70;1.00;;;;;;5114542;28;20173;-70
2022/03/20 12:50:26;;;;;;;0.30;0.30;;;21.60;1.00;;;;;;5114196;28;20196;-72
2022/03/20 12:53:01;;;;;;;0.30;0.30;;;21.50;1.00;;;;;;5114546;28;20254;-73
2022/03/20 12:55:27;;;;;;;0.30;0.30;;;21.80;1.00;;;;;;5114323;28;20652;-72
2022/03/20 12:57:53;;;;;;;0.30;0.30;;;21.40;1.00;;;;;;5114039;28;20764;-72
2022/03/20 13:00:24;;;;;;;0.40;0.40;;;22.50;1.00;;;;;;5113269;28;20317;-72
2022/03/20 13:03:07;;;;;;;0.40;0.40;;;23.00;1.00;;;;;;5114134;28;20234;-72
2022/03/20 13:05:33;;;;;;;0.30;0.30;;;22.90;1.00;;;;;;5113357;28;20185;-71
2022/03/20 13:07:59;;;;;;;0.33;0.33;;;23.60;1.00;;;;;;5113804;28;20203;-72
2022/03/20 13:10:36;;;;;;;0.30;0.30;;;23.70;1.00;;;;;;5115805;28;20185;-72
2022/03/20 13:13:03;;;;;;;0.30;0.30;;;23.30;1.00;;;;;;5115480;28;20204;-73
2022/03/20 13:15:40;;;;;;;0.30;0.30;;;21.70;1.00;;;;;;5115004;28;20260;-73
2022/03/20 13:18:07;;;;;;;0.37;0.37;;;21.50;1.00;;;;;;5113667;28;20703;-71
2022/03/20 13:20:45;;;;;;;0.50;0.50;;;22.00;1.00;;;;;;5113411;28;20228;-72
2022/03/20 13:23:13;;;;;;;0.30;0.30;;;20.60;1.00;;;;;;5113506;28;20588;-72
2022/03/20 13:25:41;;;;;;;0.30;0.30;;;19.90;1.00;;;;;;5113919;28;20176;-71
2022/03/20 13:28:19;;;;;;;0.30;0.30;;;19.20;1.00;;;;;;5113996;28;20184;-73
2022/03/20 13:30:44;;;;;;;0.40;0.40;;;18.70;1.00;;;;;;5113447;28;20201;-73
2022/03/20 13:33:10;;;;;;;0.40;0.40;;;18.60;1.00;;;;;;5113709;28;20183;-73
2022/03/20 13:35:35;;;;;;;0.30;0.30;;;18.70;1.00;;;;;;5113590;28;20192;-74
2022/03/20 13:38:03;;;;;;;0.40;0.40;;;19.20;1.00;;;;;;5113376;28;20186;-72